sensor_id;sensor_type;location;lat;lon;timestamp;P1;durP1;ratioP1;P2;durP2;ratioP2
79137;SDS011;68544;45.566;10.238;2024-02-04T00:01:52;51.67;;;44.63;;
79137;SDS011;68544;45.566;10.238;2024-02-04T00:04:17;53.67;;;44.40;;
79137;SDS011;68544;45.566;10.238;2024-02-04T00:06:43;55.43;;;45.80;;
79137;SDS011;68544;45.566;10.238;2024-02-04T00:09:08;56.10;;;47.27;;
79137;SDS011;68544;45.566;10.238;2024-02-04T00:11:33;59.27;;;49.67;;
79137;SDS011;68544;45.566;10.238;2024-02-04T00:13:59;59.92;;;50.25;;
79137;SDS011;68544;45.566;10.238;2024-02-04T00:16:25;57.30;;;49.43;;
79137;SDS011;68544;45.566;10.238;2024-02-04T00:18:50;56.23;;;48.90;;
79137;SDS011;68544;45.566;10.238;2024-02-04T00:21:15;55.70;;;48.93;;
79137;SDS011;68544;45.566;10.238;2024-02-04T00:23:41;56.97;;;47.20;;
79137;SDS011;68544;45.566;10.238;2024-02-04T00:26:06;54.87;;;46.07;;
79137;SDS011;68544;45.566;10.238;2024-02-04T00:28:31;55.63;;;46.90;;
79137;SDS011;68544;45.566;10.238;2024-02-04T00:30:57;54.67;;;45.50;;
79137;SDS011;68544;45.566;10.238;2024-02-04T00:33:24;61.22;;;50.50;;
79137;SDS011;68544;45.566;10.238;2024-02-04T00:35:49;51.87;;;41.50;;
79137;SDS011;68544;45.566;10.238;2024-02-04T00:38:15;47.70;;;39.50;;
79137;SDS011;68544;45.566;10.238;2024-02-04T00:40:40;64.57;;;54.33;;
79137;SDS011;68544;45.566;10.238;2024-02-04T00:43:05;61.53;;;54.03;;
79137;SDS011;68544;45.566;10.238;2024-02-04T00:45:31;64.47;;;53.30;;
79137;SDS011;68544;45.566;10.238;2024-02-04T00:47:56;46.23;;;38.30;;
79137;SDS011;68544;45.566;10.238;2024-02-04T00:50:21;58.77;;;49.50;;
79137;SDS011;68544;45.566;10.238;2024-02-04T00:52:47;56.53;;;48.70;;
79137;SDS011;68544;45.566;10.238;2024-02-04T00:55:12;56.77;;;48.73;;
79137;SDS011;68544;45.566;10.238;2024-02-04T00:57:37;58.87;;;49.87;;
79137;SDS011;68544;45.566;10.238;2024-02-04T01:00:03;58.90;;;50.30;;
79137;SDS011;68544;45.566;10.238;2024-02-04T01:02:29;55.75;;;46.28;;
79137;SDS011;68544;45.566;10.238;2024-02-04T01:04:54;54.10;;;46.00;;
79137;SDS011;68544;45.566;10.238;2024-02-04T01:07:19;50.87;;;43.50;;
79137;SDS011;68544;45.566;10.238;2024-02-04T01:09:45;53.57;;;46.40;;
79137;SDS011;68544;45.566;10.238;2024-02-04T01:12:10;57.07;;;48.00;;
79137;SDS011;68544;45.566;10.238;2024-02-04T01:14:35;53.70;;;45.13;;
79137;SDS011;68544;45.566;10.238;2024-02-04T01:17:01;40.17;;;35.23;;
79137;SDS011;68544;45.566;10.238;2024-02-04T01:19:26;57.60;;;44.60;;
79137;SDS011;68544;45.566;10.238;2024-02-04T01:21:51;53.50;;;45.20;;
79137;SDS011;68544;45.566;10.238;2024-02-04T01:24:17;51.73;;;44.77;;
79137;SDS011;68544;45.566;10.238;2024-02-04T01:26:42;40.80;;;33.90;;
79137;SDS011;68544;45.566;10.238;2024-02-04T01:29:07;49.90;;;43.57;;
79137;SDS011;68544;45.566;10.238;2024-02-04T01:31:33;52.33;;;45.80;;
79137;SDS011;68544;45.566;10.238;2024-02-04T01:33:58;51.47;;;44.27;;
79137;SDS011;68544;45.566;10.238;2024-02-04T01:36:24;39.83;;;32.97;;
79137;SDS011;68544;45.566;10.238;2024-02-04T01:38:49;51.50;;;43.73;;
79137;SDS011;68544;45.566;10.238;2024-02-04T01:41:14;48.93;;;41.97;;
79137;SDS011;68544;45.566;10.238;2024-02-04T01:43:40;37.93;;;32.23;;
79137;SDS011;68544;45.566;10.238;2024-02-04T01:46:05;55.13;;;45.07;;
79137;SDS011;68544;45.566;10.238;2024-02-04T01:48:31;49.75;;;43.13;;
79137;SDS011;68544;45.566;10.238;2024-02-04T01:50:56;36.63;;;32.50;;
79137;SDS011;68544;45.566;10.238;2024-02-04T01:53:24;54.55;;;44.85;;
79137;SDS011;68544;45.566;10.238;2024-02-04T01:55:51;65.85;;;52.97;;
79137;SDS011;68544;45.566;10.238;2024-02-04T01:58:17;56.87;;;49.67;;
79137;SDS011;68544;45.566;10.238;2024-02-04T02:00:42;58.67;;;50.40;;
79137;SDS011;68544;45.566;10.238;2024-02-04T02:03:08;61.00;;;49.25;;
79137;SDS011;68544;45.566;10.238;2024-02-04T02:05:36;57.67;;;49.50;;
79137;SDS011;68544;45.566;10.238;2024-02-04T02:08:02;58.03;;;49.97;;
79137;SDS011;68544;45.566;10.238;2024-02-04T02:10:27;56.33;;;48.80;;
79137;SDS011;68544;45.566;10.238;2024-02-04T02:15:20;45.30;;;36.43;;
79137;SDS011;68544;45.566;10.238;2024-02-04T02:18:02;57.75;;;48.85;;
79137;SDS011;68544;45.566;10.238;2024-02-04T02:23:27;54.90;;;46.22;;
79137;SDS011;68544;45.566;10.238;2024-02-04T02:25:55;50.63;;;43.03;;
79137;SDS011;68544;45.566;10.238;2024-02-04T02:28:21;51.10;;;44.60;;
79137;SDS011;68544;45.566;10.238;2024-02-04T02:30:46;52.83;;;46.77;;
79137;SDS011;68544;45.566;10.238;2024-02-04T02:33:12;54.27;;;45.90;;
79137;SDS011;68544;45.566;10.238;2024-02-04T02:35:37;57.10;;;48.73;;
79137;SDS011;68544;45.566;10.238;2024-02-04T02:40:37;44.83;;;35.43;;
79137;SDS011;68544;45.566;10.238;2024-02-04T02:43:10;56.55;;;46.80;;
79137;SDS011;68544;45.566;10.238;2024-02-04T02:48:04;55.20;;;46.63;;
79137;SDS011;68544;45.566;10.238;2024-02-04T02:50:31;58.20;;;48.40;;
79137;SDS011;68544;45.566;10.238;2024-02-04T02:52:56;59.03;;;49.57;;
79137;SDS011;68544;45.566;10.238;2024-02-04T02:55:22;56.03;;;49.23;;
79137;SDS011;68544;45.566;10.238;2024-02-04T02:57:47;54.97;;;47.97;;
79137;SDS011;68544;45.566;10.238;2024-02-04T03:00:12;58.60;;;48.00;;
79137;SDS011;68544;45.566;10.238;2024-02-04T03:02:38;57.10;;;47.55;;
79137;SDS011;68544;45.566;10.238;2024-02-04T03:05:04;40.23;;;35.00;;
79137;SDS011;68544;45.566;10.238;2024-02-04T03:07:29;38.90;;;32.40;;
79137;SDS011;68544;45.566;10.238;2024-02-04T03:09:55;37.87;;;33.47;;
79137;SDS011;68544;45.566;10.238;2024-02-04T03:12:20;50.20;;;43.73;;
79137;SDS011;68544;45.566;10.238;2024-02-04T03:14:45;50.73;;;43.07;;
79137;SDS011;68544;45.566;10.238;2024-02-04T03:17:11;45.60;;;39.17;;
79137;SDS011;68544;45.566;10.238;2024-02-04T03:19:37;46.13;;;40.17;;
79137;SDS011;68544;45.566;10.238;2024-02-04T03:22:02;32.40;;;28.90;;
79137;SDS011;68544;45.566;10.238;2024-02-04T03:24:28;44.27;;;37.07;;
79137;SDS011;68544;45.566;10.238;2024-02-04T03:26:53;44.27;;;37.60;;
79137;SDS011;68544;45.566;10.238;2024-02-04T03:29:18;41.30;;;36.07;;
79137;SDS011;68544;45.566;10.238;2024-02-04T03:31:44;31.47;;;26.77;;
79137;SDS011;68544;45.566;10.238;2024-02-04T03:34:09;44.50;;;37.70;;
79137;SDS011;68544;45.566;10.238;2024-02-04T03:36:36;48.60;;;41.37;;
79137;SDS011;68544;45.566;10.238;2024-02-04T03:39:03;43.50;;;38.28;;
79137;SDS011;68544;45.566;10.238;2024-02-04T03:41:28;34.17;;;29.13;;
79137;SDS011;68544;45.566;10.238;2024-02-04T03:43:54;35.37;;;28.97;;
79137;SDS011;68544;45.566;10.238;2024-02-04T03:46:20;48.28;;;40.33;;
79137;SDS011;68544;45.566;10.238;2024-02-04T03:48:45;44.00;;;38.27;;
79137;SDS011;68544;45.566;10.238;2024-02-04T03:51:14;45.57;;;38.03;;
79137;SDS011;68544;45.566;10.238;2024-02-04T03:53:42;46.78;;;38.53;;
79137;SDS011;68544;45.566;10.238;2024-02-04T03:56:07;42.80;;;34.67;;
79137;SDS011;68544;45.566;10.238;2024-02-04T03:58:33;40.20;;;33.90;;
79137;SDS011;68544;45.566;10.238;2024-02-04T04:00:58;44.27;;;36.33;;
79137;SDS011;68544;45.566;10.238;2024-02-04T04:03:24;33.77;;;28.67;;
79137;SDS011;68544;45.566;10.238;2024-02-04T04:05:49;45.67;;;39.27;;
79137;SDS011;68544;45.566;10.238;2024-02-04T04:08:15;47.67;;;39.40;;
79137;SDS011;68544;45.566;10.238;2024-02-04T04:10:40;51.73;;;40.77;;
79137;SDS011;68544;45.566;10.238;2024-02-04T04:13:06;35.37;;;30.53;;
79137;SDS011;68544;45.566;10.238;2024-02-04T04:15:31;49.77;;;41.47;;
79137;SDS011;68544;45.566;10.238;2024-02-04T04:17:56;49.63;;;41.33;;
79137;SDS011;68544;45.566;10.238;2024-02-04T04:20:22;47.17;;;40.77;;
79137;SDS011;68544;45.566;10.238;2024-02-04T04:22:47;34.20;;;29.43;;
79137;SDS011;68544;45.566;10.238;2024-02-04T04:25:12;46.67;;;39.90;;
79137;SDS011;68544;45.566;10.238;2024-02-04T04:27:39;47.17;;;40.58;;
79137;SDS011;68544;45.566;10.238;2024-02-04T04:30:04;46.33;;;41.23;;
79137;SDS011;68544;45.566;10.238;2024-02-04T04:32:30;46.90;;;39.65;;
79137;SDS011;68544;45.566;10.238;2024-02-04T04:34:56;49.15;;;39.40;;
79137;SDS011;68544;45.566;10.238;2024-02-04T04:37:21;45.90;;;37.70;;
79137;SDS011;68544;45.566;10.238;2024-02-04T04:39:47;31.57;;;25.77;;
79137;SDS011;68544;45.566;10.238;2024-02-04T04:42:12;31.00;;;25.30;;
79137;SDS011;68544;45.566;10.238;2024-02-04T04:44:37;37.43;;;32.33;;
79137;SDS011;68544;45.566;10.238;2024-02-04T04:47:03;39.70;;;31.53;;
79137;SDS011;68544;45.566;10.238;2024-02-04T04:49:28;38.33;;;32.87;;
79137;SDS011;68544;45.566;10.238;2024-02-04T04:51:53;44.30;;;37.20;;
79137;SDS011;68544;45.566;10.238;2024-02-04T04:54:19;40.87;;;34.40;;
79137;SDS011;68544;45.566;10.238;2024-02-04T04:56:44;41.63;;;33.53;;
79137;SDS011;68544;45.566;10.238;2024-02-04T04:59:09;39.57;;;34.20;;
79137;SDS011;68544;45.566;10.238;2024-02-04T05:01:35;40.67;;;33.67;;
79137;SDS011;68544;45.566;10.238;2024-02-04T05:04:00;39.37;;;34.37;;
79137;SDS011;68544;45.566;10.238;2024-02-04T05:06:26;41.13;;;35.73;;
79137;SDS011;68544;45.566;10.238;2024-02-04T05:08:51;42.20;;;35.77;;
79137;SDS011;68544;45.566;10.238;2024-02-04T05:11:17;38.88;;;32.05;;
79137;SDS011;68544;45.566;10.238;2024-02-04T05:13:42;38.97;;;33.83;;
79137;SDS011;68544;45.566;10.238;2024-02-04T05:16:08;40.03;;;33.67;;
79137;SDS011;68544;45.566;10.238;2024-02-04T05:18:33;41.67;;;34.50;;
79137;SDS011;68544;45.566;10.238;2024-02-04T05:21:00;37.33;;;32.73;;
79137;SDS011;68544;45.566;10.238;2024-02-04T05:23:26;36.20;;;30.17;;
79137;SDS011;68544;45.566;10.238;2024-02-04T05:25:52;40.33;;;33.47;;
79137;SDS011;68544;45.566;10.238;2024-02-04T05:28:17;36.70;;;30.60;;
79137;SDS011;68544;45.566;10.238;2024-02-04T05:30:42;31.87;;;28.17;;
79137;SDS011;68544;45.566;10.238;2024-02-04T05:33:08;36.63;;;29.53;;
79137;SDS011;68544;45.566;10.238;2024-02-04T05:35:33;36.90;;;30.47;;
79137;SDS011;68544;45.566;10.238;2024-02-04T05:37:58;35.07;;;29.77;;
79137;SDS011;68544;45.566;10.238;2024-02-04T05:40:24;34.70;;;30.63;;
79137;SDS011;68544;45.566;10.238;2024-02-04T05:42:49;28.77;;;23.00;;
79137;SDS011;68544;45.566;10.238;2024-02-04T05:45:14;39.73;;;32.30;;
79137;SDS011;68544;45.566;10.238;2024-02-04T05:47:40;38.73;;;32.83;;
79137;SDS011;68544;45.566;10.238;2024-02-04T05:50:05;35.20;;;30.73;;
79137;SDS011;68544;45.566;10.238;2024-02-04T05:52:31;37.03;;;31.48;;
79137;SDS011;68544;45.566;10.238;2024-02-04T05:54:56;39.63;;;32.80;;
79137;SDS011;68544;45.566;10.238;2024-02-04T05:57:22;29.20;;;24.43;;
79137;SDS011;68544;45.566;10.238;2024-02-04T05:59:47;35.37;;;30.50;;
79137;SDS011;68544;45.566;10.238;2024-02-04T06:02:13;39.90;;;32.85;;
79137;SDS011;68544;45.566;10.238;2024-02-04T06:04:39;37.00;;;30.65;;
79137;SDS011;68544;45.566;10.238;2024-02-04T06:07:05;36.55;;;32.05;;
79137;SDS011;68544;45.566;10.238;2024-02-04T06:09:31;39.43;;;32.70;;
79137;SDS011;68544;45.566;10.238;2024-02-04T06:11:58;40.25;;;32.47;;
79137;SDS011;68544;45.566;10.238;2024-02-04T06:14:23;41.70;;;33.47;;
79137;SDS011;68544;45.566;10.238;2024-02-04T06:16:48;35.30;;;30.17;;
79137;SDS011;68544;45.566;10.238;2024-02-04T06:19:13;40.00;;;32.77;;
79137;SDS011;68544;45.566;10.238;2024-02-04T06:21:39;29.00;;;24.67;;
79137;SDS011;68544;45.566;10.238;2024-02-04T06:24:05;28.43;;;24.67;;
79137;SDS011;68544;45.566;10.238;2024-02-04T06:26:30;42.57;;;32.93;;
79137;SDS011;68544;45.566;10.238;2024-02-04T06:28:56;39.90;;;31.80;;
79137;SDS011;68544;45.566;10.238;2024-02-04T06:31:21;36.70;;;32.23;;
79137;SDS011;68544;45.566;10.238;2024-02-04T06:33:47;38.73;;;31.83;;
79137;SDS011;68544;45.566;10.238;2024-02-04T06:36:12;36.53;;;32.10;;
79137;SDS011;68544;45.566;10.238;2024-02-04T06:38:37;38.40;;;31.17;;
79137;SDS011;68544;45.566;10.238;2024-02-04T06:41:03;38.53;;;32.47;;
79137;SDS011;68544;45.566;10.238;2024-02-04T06:43:28;35.27;;;30.30;;
79137;SDS011;68544;45.566;10.238;2024-02-04T06:45:54;35.00;;;30.13;;
79137;SDS011;68544;45.566;10.238;2024-02-04T06:48:19;44.00;;;35.90;;
79137;SDS011;68544;45.566;10.238;2024-02-04T06:50:45;38.27;;;33.30;;
79137;SDS011;68544;45.566;10.238;2024-02-04T06:53:10;39.33;;;31.70;;
79137;SDS011;68544;45.566;10.238;2024-02-04T06:55:36;28.93;;;25.17;;
79137;SDS011;68544;45.566;10.238;2024-02-04T06:58:01;41.27;;;33.30;;
79137;SDS011;68544;45.566;10.238;2024-02-04T07:00:26;41.47;;;32.93;;
79137;SDS011;68544;45.566;10.238;2024-02-04T07:02:52;41.53;;;34.70;;
79137;SDS011;68544;45.566;10.238;2024-02-04T07:05:17;40.47;;;34.00;;
79137;SDS011;68544;45.566;10.238;2024-02-04T07:07:43;39.33;;;32.43;;
79137;SDS011;68544;45.566;10.238;2024-02-04T07:10:09;39.78;;;32.42;;
79137;SDS011;68544;45.566;10.238;2024-02-04T07:12:34;29.97;;;24.47;;
79137;SDS011;68544;45.566;10.238;2024-02-04T07:15:00;39.60;;;32.90;;
79137;SDS011;68544;45.566;10.238;2024-02-04T07:17:26;41.70;;;34.90;;
79137;SDS011;68544;45.566;10.238;2024-02-04T07:19:51;30.00;;;25.15;;
79137;SDS011;68544;45.566;10.238;2024-02-04T07:22:17;29.23;;;24.23;;
79137;SDS011;68544;45.566;10.238;2024-02-04T07:24:42;37.93;;;31.13;;
79137;SDS011;68544;45.566;10.238;2024-02-04T07:27:07;28.60;;;22.87;;
79137;SDS011;68544;45.566;10.238;2024-02-04T07:29:33;37.83;;;31.20;;
79137;SDS011;68544;45.566;10.238;2024-02-04T07:31:58;36.37;;;29.90;;
79137;SDS011;68544;45.566;10.238;2024-02-04T07:34:24;35.93;;;30.63;;
79137;SDS011;68544;45.566;10.238;2024-02-04T07:36:49;35.65;;;30.08;;
79137;SDS011;68544;45.566;10.238;2024-02-04T07:39:17;39.83;;;30.77;;
79137;SDS011;68544;45.566;10.238;2024-02-04T07:41:42;27.03;;;23.90;;
79137;SDS011;68544;45.566;10.238;2024-02-04T07:44:08;35.43;;;30.43;;
79137;SDS011;68544;45.566;10.238;2024-02-04T07:46:33;37.70;;;30.30;;
79137;SDS011;68544;45.566;10.238;2024-02-04T07:48:58;33.60;;;28.43;;
79137;SDS011;68544;45.566;10.238;2024-02-04T07:51:24;34.10;;;29.73;;
79137;SDS011;68544;45.566;10.238;2024-02-04T07:53:49;35.67;;;30.03;;
79137;SDS011;68544;45.566;10.238;2024-02-04T07:56:14;33.23;;;28.90;;
79137;SDS011;68544;45.566;10.238;2024-02-04T07:58:40;32.73;;;28.93;;
79137;SDS011;68544;45.566;10.238;2024-02-04T08:01:05;32.57;;;29.07;;
79137;SDS011;68544;45.566;10.238;2024-02-04T08:03:30;35.07;;;29.10;;
79137;SDS011;68544;45.566;10.238;2024-02-04T08:05:56;32.57;;;28.17;;
79137;SDS011;68544;45.566;10.238;2024-02-04T08:08:21;34.47;;;28.23;;
79137;SDS011;68544;45.566;10.238;2024-02-04T08:10:46;32.40;;;28.27;;
79137;SDS011;68544;45.566;10.238;2024-02-04T08:13:12;33.87;;;29.37;;
79137;SDS011;68544;45.566;10.238;2024-02-04T08:15:37;31.53;;;28.10;;
79137;SDS011;68544;45.566;10.238;2024-02-04T08:18:02;31.70;;;28.23;;
79137;SDS011;68544;45.566;10.238;2024-02-04T08:20:28;33.77;;;28.53;;
79137;SDS011;68544;45.566;10.238;2024-02-04T08:22:53;31.90;;;27.70;;
79137;SDS011;68544;45.566;10.238;2024-02-04T08:25:19;37.70;;;29.70;;
79137;SDS011;68544;45.566;10.238;2024-02-04T08:27:45;24.67;;;21.08;;
79137;SDS011;68544;45.566;10.238;2024-02-04T08:30:11;32.20;;;27.53;;
79137;SDS011;68544;45.566;10.238;2024-02-04T08:32:37;30.97;;;27.37;;
79137;SDS011;68544;45.566;10.238;2024-02-04T08:35:03;31.75;;;28.00;;
79137;SDS011;68544;45.566;10.238;2024-02-04T08:37:29;31.15;;;26.55;;
79137;SDS011;68544;45.566;10.238;2024-02-04T08:39:54;33.93;;;29.63;;
79137;SDS011;68544;45.566;10.238;2024-02-04T08:42:20;33.33;;;29.63;;
79137;SDS011;68544;45.566;10.238;2024-02-04T08:44:45;33.63;;;30.03;;
79137;SDS011;68544;45.566;10.238;2024-02-04T08:47:11;32.90;;;29.33;;
79137;SDS011;68544;45.566;10.238;2024-02-04T08:49:38;33.42;;;30.00;;
79137;SDS011;68544;45.566;10.238;2024-02-04T08:52:04;34.30;;;29.03;;
79137;SDS011;68544;45.566;10.238;2024-02-04T08:54:29;35.53;;;31.47;;
79137;SDS011;68544;45.566;10.238;2024-02-04T08:56:55;25.43;;;22.13;;
79137;SDS011;68544;45.566;10.238;2024-02-04T08:59:20;40.20;;;31.73;;
79137;SDS011;68544;45.566;10.238;2024-02-04T09:01:45;35.30;;;30.30;;
79137;SDS011;68544;45.566;10.238;2024-02-04T09:04:10;36.07;;;31.13;;
79137;SDS011;68544;45.566;10.238;2024-02-04T09:06:36;25.00;;;21.80;;
79137;SDS011;68544;45.566;10.238;2024-02-04T09:09:01;33.47;;;29.87;;
79137;SDS011;68544;45.566;10.238;2024-02-04T09:11:26;35.23;;;30.73;;
79137;SDS011;68544;45.566;10.238;2024-02-04T09:13:52;33.10;;;29.47;;
79137;SDS011;68544;45.566;10.238;2024-02-04T09:16:17;35.33;;;31.53;;
79137;SDS011;68544;45.566;10.238;2024-02-04T09:18:42;35.47;;;31.43;;
79137;SDS011;68544;45.566;10.238;2024-02-04T09:21:08;36.87;;;32.87;;
79137;SDS011;68544;45.566;10.238;2024-02-04T09:23:33;27.47;;;24.60;;
79137;SDS011;68544;45.566;10.238;2024-02-04T09:25:58;37.40;;;31.97;;
79137;SDS011;68544;45.566;10.238;2024-02-04T09:28:24;34.60;;;30.90;;
79137;SDS011;68544;45.566;10.238;2024-02-04T09:30:49;37.30;;;32.53;;
79137;SDS011;68544;45.566;10.238;2024-02-04T09:33:15;35.83;;;30.30;;
79137;SDS011;68544;45.566;10.238;2024-02-04T09:35:40;37.47;;;33.13;;
79137;SDS011;68544;45.566;10.238;2024-02-04T09:38:05;33.33;;;29.57;;
79137;SDS011;68544;45.566;10.238;2024-02-04T09:40:31;35.47;;;31.77;;
79137;SDS011;68544;45.566;10.238;2024-02-04T09:42:57;35.23;;;31.53;;
79137;SDS011;68544;45.566;10.238;2024-02-04T09:45:24;36.75;;;32.75;;
79137;SDS011;68544;45.566;10.238;2024-02-04T09:47:50;38.47;;;34.23;;
79137;SDS011;68544;45.566;10.238;2024-02-04T09:50:17;47.22;;;42.15;;
79137;SDS011;68544;45.566;10.238;2024-02-04T09:52:47;46.15;;;41.20;;
79137;SDS011;68544;45.566;10.238;2024-02-04T09:55:14;50.67;;;45.28;;
79137;SDS011;68544;45.566;10.238;2024-02-04T09:57:41;52.20;;;46.55;;
79137;SDS011;68544;45.566;10.238;2024-02-04T10:00:06;55.47;;;49.53;;
79137;SDS011;68544;45.566;10.238;2024-02-04T10:02:33;55.97;;;49.67;;
79137;SDS011;68544;45.566;10.238;2024-02-04T10:04:59;55.90;;;49.80;;
79137;SDS011;68544;45.566;10.238;2024-02-04T10:07:24;55.70;;;48.53;;
79137;SDS011;68544;45.566;10.238;2024-02-04T10:09:50;52.87;;;47.27;;
79137;SDS011;68544;45.566;10.238;2024-02-04T10:12:16;53.58;;;47.95;;
79137;SDS011;68544;45.566;10.238;2024-02-04T10:17:07;52.40;;;46.58;;
79137;SDS011;68544;45.566;10.238;2024-02-04T10:19:33;51.10;;;45.53;;
79137;SDS011;68544;45.566;10.238;2024-02-04T10:22:01;51.40;;;46.23;;
79137;SDS011;68544;45.566;10.238;2024-02-04T10:24:28;50.40;;;44.95;;
79137;SDS011;68544;45.566;10.238;2024-02-04T10:26:56;50.95;;;45.83;;
79137;SDS011;68544;45.566;10.238;2024-02-04T10:29:25;50.05;;;44.63;;
79137;SDS011;68544;45.566;10.238;2024-02-04T10:31:54;50.45;;;45.08;;
79137;SDS011;68544;45.566;10.238;2024-02-04T10:34:21;49.90;;;44.95;;
79137;SDS011;68544;45.566;10.238;2024-02-04T10:36:47;49.03;;;43.92;;
79137;SDS011;68544;45.566;10.238;2024-02-04T10:39:12;51.83;;;46.70;;
79137;SDS011;68544;45.566;10.238;2024-02-04T10:41:39;52.33;;;47.15;;
79137;SDS011;68544;45.566;10.238;2024-02-04T10:44:13;51.35;;;46.38;;
79137;SDS011;68544;45.566;10.238;2024-02-04T10:46:42;51.00;;;45.80;;
79137;SDS011;68544;45.566;10.238;2024-02-04T10:49:13;50.92;;;45.85;;
79137;SDS011;68544;45.566;10.238;2024-02-04T10:51:39;55.25;;;49.88;;
79137;SDS011;68544;45.566;10.238;2024-02-04T10:54:09;56.47;;;50.95;;
79137;SDS011;68544;45.566;10.238;2024-02-04T10:56:37;55.47;;;49.58;;
79137;SDS011;68544;45.566;10.238;2024-02-04T10:59:07;53.17;;;47.97;;
79137;SDS011;68544;45.566;10.238;2024-02-04T11:01:32;53.22;;;48.17;;
79137;SDS011;68544;45.566;10.238;2024-02-04T11:03:58;52.90;;;47.53;;
79137;SDS011;68544;45.566;10.238;2024-02-04T11:06:25;52.58;;;47.40;;
79137;SDS011;68544;45.566;10.238;2024-02-04T11:08:51;52.40;;;47.30;;
79137;SDS011;68544;45.566;10.238;2024-02-04T11:11:17;51.95;;;47.15;;
79137;SDS011;68544;45.566;10.238;2024-02-04T11:13:44;55.55;;;50.08;;
79137;SDS011;68544;45.566;10.238;2024-02-04T11:16:16;57.85;;;52.17;;
79137;SDS011;68544;45.566;10.238;2024-02-04T11:18:52;62.07;;;56.30;;
79137;SDS011;68544;45.566;10.238;2024-02-04T11:21:33;67.15;;;60.53;;
79137;SDS011;68544;45.566;10.238;2024-02-04T11:24:16;68.05;;;61.80;;
79137;SDS011;68544;45.566;10.238;2024-02-04T11:27:06;76.30;;;69.22;;
79137;SDS011;68544;45.566;10.238;2024-02-04T11:31:57;76.30;;;69.50;;
79137;SDS011;68544;45.566;10.238;2024-02-04T11:36:48;78.18;;;71.03;;
79137;SDS011;68544;45.566;10.238;2024-02-04T11:41:45;77.28;;;70.20;;
79137;SDS011;68544;45.566;10.238;2024-02-04T11:44:24;76.13;;;69.25;;
79137;SDS011;68544;45.566;10.238;2024-02-04T11:46:50;78.50;;;71.30;;
79137;SDS011;68544;45.566;10.238;2024-02-04T11:49:17;76.07;;;69.07;;
79137;SDS011;68544;45.566;10.238;2024-02-04T11:51:47;74.18;;;67.43;;
79137;SDS011;68544;45.566;10.238;2024-02-04T11:54:16;71.45;;;65.13;;
79137;SDS011;68544;45.566;10.238;2024-02-04T11:56:44;68.15;;;62.20;;
79137;SDS011;68544;45.566;10.238;2024-02-04T11:59:11;70.28;;;63.78;;
79137;SDS011;68544;45.566;10.238;2024-02-04T12:01:40;63.45;;;57.67;;
79137;SDS011;68544;45.566;10.238;2024-02-04T12:04:09;65.80;;;59.78;;
79137;SDS011;68544;45.566;10.238;2024-02-04T12:06:35;59.92;;;54.53;;
79137;SDS011;68544;45.566;10.238;2024-02-04T12:09:02;57.05;;;51.92;;
79137;SDS011;68544;45.566;10.238;2024-02-04T12:11:29;55.60;;;50.75;;
79137;SDS011;68544;45.566;10.238;2024-02-04T12:13:54;55.10;;;50.13;;
79137;SDS011;68544;45.566;10.238;2024-02-04T12:16:21;54.78;;;49.67;;
79137;SDS011;68544;45.566;10.238;2024-02-04T12:18:49;54.35;;;49.45;;
79137;SDS011;68544;45.566;10.238;2024-02-04T12:21:15;54.17;;;49.17;;
79137;SDS011;68544;45.566;10.238;2024-02-04T12:23:41;56.22;;;51.17;;
79137;SDS011;68544;45.566;10.238;2024-02-04T12:26:06;57.70;;;52.50;;
79137;SDS011;68544;45.566;10.238;2024-02-04T12:28:31;61.13;;;55.72;;
79137;SDS011;68544;45.566;10.238;2024-02-04T12:30:57;60.90;;;55.20;;
79137;SDS011;68544;45.566;10.238;2024-02-04T12:33:25;59.90;;;54.47;;
79137;SDS011;68544;45.566;10.238;2024-02-04T12:35:51;63.03;;;57.30;;
79137;SDS011;68544;45.566;10.238;2024-02-04T12:38:17;64.65;;;58.80;;
79137;SDS011;68544;45.566;10.238;2024-02-04T12:40:42;65.05;;;59.35;;
79137;SDS011;68544;45.566;10.238;2024-02-04T12:43:10;69.28;;;62.58;;
79137;SDS011;68544;45.566;10.238;2024-02-04T12:45:36;65.90;;;59.95;;
79137;SDS011;68544;45.566;10.238;2024-02-04T12:50:27;70.43;;;63.80;;
79137;SDS011;68544;45.566;10.238;2024-02-04T12:55:32;71.55;;;64.70;;
79137;SDS011;68544;45.566;10.238;2024-02-04T13:00:32;68.60;;;61.97;;
79137;SDS011;68544;45.566;10.238;2024-02-04T13:02:58;69.60;;;62.72;;
79137;SDS011;68544;45.566;10.238;2024-02-04T13:05:24;67.65;;;61.15;;
79137;SDS011;68544;45.566;10.238;2024-02-04T13:07:53;67.28;;;60.72;;
79137;SDS011;68544;45.566;10.238;2024-02-04T13:10:21;67.32;;;60.83;;
79137;SDS011;68544;45.566;10.238;2024-02-04T13:13:05;67.22;;;60.80;;
79137;SDS011;68544;45.566;10.238;2024-02-04T13:15:34;67.82;;;61.22;;
79137;SDS011;68544;45.566;10.238;2024-02-04T13:18:04;65.47;;;59.25;;
79137;SDS011;68544;45.566;10.238;2024-02-04T13:20:30;63.95;;;57.55;;
79137;SDS011;68544;45.566;10.238;2024-02-04T13:22:55;60.80;;;54.83;;
79137;SDS011;68544;45.566;10.238;2024-02-04T13:25:21;63.03;;;56.53;;
79137;SDS011;68544;45.566;10.238;2024-02-04T13:27:49;61.00;;;54.97;;
79137;SDS011;68544;45.566;10.238;2024-02-04T13:30:15;57.97;;;52.13;;
79137;SDS011;68544;45.566;10.238;2024-02-04T13:32:42;56.55;;;50.85;;
79137;SDS011;68544;45.566;10.238;2024-02-04T13:35:08;56.33;;;50.65;;
79137;SDS011;68544;45.566;10.238;2024-02-04T13:37:41;57.70;;;52.10;;
79137;SDS011;68544;45.566;10.238;2024-02-04T13:40:19;56.67;;;50.92;;
79137;SDS011;68544;45.566;10.238;2024-02-04T13:42:46;54.85;;;49.28;;
79137;SDS011;68544;45.566;10.238;2024-02-04T13:45:11;50.50;;;45.30;;
79137;SDS011;68544;45.566;10.238;2024-02-04T13:47:41;48.92;;;43.88;;
79137;SDS011;68544;45.566;10.238;2024-02-04T13:52:36;52.33;;;46.95;;
79137;SDS011;68544;45.566;10.238;2024-02-04T13:55:02;50.70;;;45.57;;
79137;SDS011;68544;45.566;10.238;2024-02-04T13:57:32;46.40;;;41.58;;
79137;SDS011;68544;45.566;10.238;2024-02-04T13:59:57;43.53;;;39.15;;
79137;SDS011;68544;45.566;10.238;2024-02-04T14:02:23;42.27;;;37.87;;
79137;SDS011;68544;45.566;10.238;2024-02-04T14:04:50;45.90;;;41.20;;
79137;SDS011;68544;45.566;10.238;2024-02-04T14:07:15;44.42;;;39.78;;
79137;SDS011;68544;45.566;10.238;2024-02-04T14:09:41;44.90;;;40.40;;
79137;SDS011;68544;45.566;10.238;2024-02-04T14:12:06;42.03;;;37.83;;
79137;SDS011;68544;45.566;10.238;2024-02-04T14:14:32;41.78;;;37.38;;
79137;SDS011;68544;45.566;10.238;2024-02-04T14:16:57;39.77;;;35.77;;
79137;SDS011;68544;45.566;10.238;2024-02-04T14:19:22;40.60;;;36.50;;
79137;SDS011;68544;45.566;10.238;2024-02-04T14:21:47;42.07;;;37.60;;
79137;SDS011;68544;45.566;10.238;2024-02-04T14:24:13;42.03;;;37.53;;
79137;SDS011;68544;45.566;10.238;2024-02-04T14:26:38;43.97;;;39.53;;
79137;SDS011;68544;45.566;10.238;2024-02-04T14:29:05;43.30;;;38.95;;
79137;SDS011;68544;45.566;10.238;2024-02-04T14:31:31;45.70;;;41.10;;
79137;SDS011;68544;45.566;10.238;2024-02-04T14:33:56;46.57;;;41.83;;